sensor_id;sensor_type;location;lat;lon;timestamp;pressure;altitude;pressure_sealevel;temperature;humidity
75497;BME280;64074;47.540;19.072;2023-11-21T00:02:37;100151.22;;;7.44;82.08
75497;BME280;64074;47.540;19.072;2023-11-21T00:05:59;100142.78;;;7.51;81.87
75497;BME280;64074;47.540;19.072;2023-11-21T00:09:14;100150.13;;;7.45;82.08
75497;BME280;64074;47.540;19.072;2023-11-21T00:12:34;100150.44;;;7.33;82.76
75497;BME280;64074;47.540;19.072;2023-11-21T00:15:58;100149.31;;;7.45;82.78
75497;BME280;64074;47.540;19.072;2023-11-21T00:19:23;100151.44;;;7.48;82.26
75497;BME280;64074;47.540;19.072;2023-11-21T00:22:52;100153.59;;;7.51;82.57
75497;BME280;64074;47.540;19.072;2023-11-21T00:26:12;100153.91;;;7.44;81.37
75497;BME280;64074;47.540;19.072;2023-11-21T00:29:45;100151.78;;;7.36;82.21
75497;BME280;64074;47.540;19.072;2023-11-21T00:33:02;100155.03;;;7.33;82.34
75497;BME280;64074;47.540;19.072;2023-11-21T00:36:20;100162.06;;;7.29;82.52
75497;BME280;64074;47.540;19.072;2023-11-21T00:39:42;100171.22;;;7.33;82.27
75497;BME280;64074;47.540;19.072;2023-11-21T00:43:04;100178.81;;;7.26;82.60
75497;BME280;64074;47.540;19.072;2023-11-21T00:46:25;100183.09;;;7.27;82.82
75497;BME280;64074;47.540;19.072;2023-11-21T00:49:49;100176.41;;;7.19;83.17
75497;BME280;64074;47.540;19.072;2023-11-21T00:53:06;100173.16;;;7.17;83.32
75497;BME280;64074;47.540;19.072;2023-11-21T00:56:34;100171.06;;;7.04;83.20
75497;BME280;64074;47.540;19.072;2023-11-21T01:00:01;100163.94;;;7.28;82.73
75497;BME280;64074;47.540;19.072;2023-11-21T01:03:23;100172.25;;;7.37;82.33
75497;BME280;64074;47.540;19.072;2023-11-21T01:06:31;100175.56;;;7.29;82.24
75497;BME280;64074;47.540;19.072;2023-11-21T01:09:40;100165.22;;;7.41;81.53
75497;BME280;64074;47.540;19.072;2023-11-21T01:12:50;100161.41;;;7.52;81.47
75497;BME280;64074;47.540;19.072;2023-11-21T01:15:59;100154.06;;;7.58;81.31
75497;BME280;64074;47.540;19.072;2023-11-21T01:19:19;100165.91;;;7.62;81.40
75497;BME280;64074;47.540;19.072;2023-11-21T01:22:45;100161.56;;;7.66;81.42
75497;BME280;64074;47.540;19.072;2023-11-21T01:25:57;100158.34;;;7.64;81.02
75497;BME280;64074;47.540;19.072;2023-11-21T01:29:07;100163.00;;;7.53;80.96
75497;BME280;64074;47.540;19.072;2023-11-21T01:32:19;100152.47;;;7.57;80.37
75497;BME280;64074;47.540;19.072;2023-11-21T01:35:30;100145.53;;;7.46;80.86
75497;BME280;64074;47.540;19.072;2023-11-21T01:38:44;100142.56;;;7.47;82.00
75497;BME280;64074;47.540;19.072;2023-11-21T01:41:55;100140.13;;;7.46;81.30
75497;BME280;64074;47.540;19.072;2023-11-21T01:45:03;100136.91;;;7.44;80.52
75497;BME280;64074;47.540;19.072;2023-11-21T01:48:13;100138.81;;;7.38;81.10
75497;BME280;64074;47.540;19.072;2023-11-21T01:51:24;100141.84;;;7.26;81.82
75497;BME280;64074;47.540;19.072;2023-11-21T01:54:34;100140.53;;;7.19;82.34
75497;BME280;64074;47.540;19.072;2023-11-21T01:57:56;100135.94;;;7.24;82.74
75497;BME280;64074;47.540;19.072;2023-11-21T02:01:21;100118.13;;;7.28;82.12
75497;BME280;64074;47.540;19.072;2023-11-21T02:04:47;100120.81;;;7.28;80.93
75497;BME280;64074;47.540;19.072;2023-11-21T02:07:58;100117.34;;;7.18;81.13
75497;BME280;64074;47.540;19.072;2023-11-21T02:11:13;100115.22;;;7.20;81.79
75497;BME280;64074;47.540;19.072;2023-11-21T02:14:26;100115.22;;;7.20;81.61
75497;BME280;64074;47.540;19.072;2023-11-21T02:18:06;100120.13;;;7.02;81.75
75497;BME280;64074;47.540;19.072;2023-11-21T02:21:19;100111.56;;;6.90;82.14
75497;BME280;64074;47.540;19.072;2023-11-21T02:24:29;100105.94;;;6.82;83.25
75497;BME280;64074;47.540;19.072;2023-11-21T02:27:43;100110.50;;;6.86;83.94
75497;BME280;64074;47.540;19.072;2023-11-21T02:31:07;100110.19;;;6.98;84.10
75497;BME280;64074;47.540;19.072;2023-11-21T02:34:31;100105.22;;;7.15;83.06
75497;BME280;64074;47.540;19.072;2023-11-21T02:37:53;100105.25;;;7.10;82.57
75497;BME280;64074;47.540;19.072;2023-11-21T02:41:06;100102.81;;;7.14;83.24
75497;BME280;64074;47.540;19.072;2023-11-21T02:44:44;100105.22;;;7.20;82.98
75497;BME280;64074;47.540;19.072;2023-11-21T02:48:22;100110.03;;;7.28;81.50
75497;BME280;64074;47.540;19.072;2023-11-21T02:52:01;100113.56;;;7.19;81.44
75497;BME280;64074;47.540;19.072;2023-11-21T02:55:23;100101.44;;;7.16;82.42
75497;BME280;64074;47.540;19.072;2023-11-21T02:58:43;100112.53;;;7.09;83.11
75497;BME280;64074;47.540;19.072;2023-11-21T03:02:08;100100.16;;;7.08;83.34
75497;BME280;64074;47.540;19.072;2023-11-21T03:05:36;100097.63;;;7.27;83.55
75497;BME280;64074;47.540;19.072;2023-11-21T03:08:55;100093.56;;;7.30;82.06
75497;BME280;64074;47.540;19.072;2023-11-21T03:12:12;100091.97;;;7.29;82.00
75497;BME280;64074;47.540;19.072;2023-11-21T03:15:29;100077.16;;;7.26;81.77
75497;BME280;64074;47.540;19.072;2023-11-21T03:18:49;100082.53;;;7.26;82.18
75497;BME280;64074;47.540;19.072;2023-11-21T03:22:15;100068.56;;;7.14;82.59
75497;BME280;64074;47.540;19.072;2023-11-21T03:25:34;100062.91;;;7.16;82.92
75497;BME280;64074;47.540;19.072;2023-11-21T03:28:51;100062.50;;;7.37;81.95
75497;BME280;64074;47.540;19.072;2023-11-21T03:31:57;100054.03;;;7.54;81.22
75497;BME280;64074;47.540;19.072;2023-11-21T03:35:08;100055.06;;;7.58;82.25
75497;BME280;64074;47.540;19.072;2023-11-21T03:38:15;100052.59;;;7.62;82.35
75497;BME280;64074;47.540;19.072;2023-11-21T03:41:19;100048.53;;;7.64;82.53
75497;BME280;64074;47.540;19.072;2023-11-21T03:44:25;100044.78;;;7.60;82.56
75497;BME280;64074;47.540;19.072;2023-11-21T03:47:33;100044.84;;;7.55;81.59
75497;BME280;64074;47.540;19.072;2023-11-21T03:50:46;100044.13;;;7.45;81.40
75497;BME280;64074;47.540;19.072;2023-11-21T03:53:53;100036.84;;;7.40;81.18
75497;BME280;64074;47.540;19.072;2023-11-21T03:57:00;100043.91;;;7.36;82.14
75497;BME280;64074;47.540;19.072;2023-11-21T04:00:10;100053.28;;;7.04;82.79
75497;BME280;64074;47.540;19.072;2023-11-21T04:03:23;100048.56;;;6.81;83.62
75497;BME280;64074;47.540;19.072;2023-11-21T04:07:07;100057.06;;;7.03;83.27
75497;BME280;64074;47.540;19.072;2023-11-21T04:10:26;100052.66;;;7.18;82.76
75497;BME280;64074;47.540;19.072;2023-11-21T04:13:40;100045.78;;;7.35;82.36
75497;BME280;64074;47.540;19.072;2023-11-21T04:16:50;100074.66;;;7.35;81.47
75497;BME280;64074;47.540;19.072;2023-11-21T04:20:12;100083.53;;;7.35;81.23
75497;BME280;64074;47.540;19.072;2023-11-21T04:23:36;100090.31;;;7.33;81.17
75497;BME280;64074;47.540;19.072;2023-11-21T04:26:57;100100.56;;;7.31;81.36
75497;BME280;64074;47.540;19.072;2023-11-21T04:30:21;100091.16;;;7.28;81.57
75497;BME280;64074;47.540;19.072;2023-11-21T04:33:43;100087.94;;;7.26;81.32
75497;BME280;64074;47.540;19.072;2023-11-21T04:37:04;100080.41;;;7.18;82.31
75497;BME280;64074;47.540;19.072;2023-11-21T04:40:29;100081.72;;;7.26;82.27
75497;BME280;64074;47.540;19.072;2023-11-21T04:43:51;100083.34;;;7.27;82.44
75497;BME280;64074;47.540;19.072;2023-11-21T04:47:00;100082.75;;;7.35;82.19
75497;BME280;64074;47.540;19.072;2023-11-21T04:50:32;100098.19;;;7.24;82.13
75497;BME280;64074;47.540;19.072;2023-11-21T04:53:58;100106.41;;;6.99;83.37
75497;BME280;64074;47.540;19.072;2023-11-21T04:57:07;100105.56;;;7.03;82.63
75497;BME280;64074;47.540;19.072;2023-11-21T05:00:28;100104.00;;;6.97;83.26
75497;BME280;64074;47.540;19.072;2023-11-21T05:04:00;100113.13;;;7.01;83.39
75497;BME280;64074;47.540;19.072;2023-11-21T05:07:24;100121.97;;;7.12;83.12
75497;BME280;64074;47.540;19.072;2023-11-21T05:10:41;100123.19;;;7.35;82.47
75497;BME280;64074;47.540;19.072;2023-11-21T05:13:45;100124.75;;;7.41;81.47
75497;BME280;64074;47.540;19.072;2023-11-21T05:16:54;100126.13;;;7.38;81.73
75497;BME280;64074;47.540;19.072;2023-11-21T05:20:05;100126.97;;;7.34;81.85
75497;BME280;64074;47.540;19.072;2023-11-21T05:23:27;100122.88;;;7.41;82.22
75497;BME280;64074;47.540;19.072;2023-11-21T05:26:43;100104.19;;;7.55;81.55
75497;BME280;64074;47.540;19.072;2023-11-21T05:30:21;100090.69;;;7.55;80.89
75497;BME280;64074;47.540;19.072;2023-11-21T05:33:31;100092.66;;;7.45;81.34
75497;BME280;64074;47.540;19.072;2023-11-21T05:36:43;100103.19;;;7.41;81.91
75497;BME280;64074;47.540;19.072;2023-11-21T05:40:04;100114.25;;;7.45;81.78
75497;BME280;64074;47.540;19.072;2023-11-21T05:43:28;100109.66;;;7.45;81.77
75497;BME280;64074;47.540;19.072;2023-11-21T05:46:45;100110.72;;;7.49;82.34
75497;BME280;64074;47.540;19.072;2023-11-21T05:49:57;100112.88;;;7.47;82.22
75497;BME280;64074;47.540;19.072;2023-11-21T05:53:07;100113.97;;;7.41;82.16
75497;BME280;64074;47.540;19.072;2023-11-21T05:56:30;100122.63;;;7.38;82.38
75497;BME280;64074;47.540;19.072;2023-11-21T05:59:40;100123.09;;;7.50;82.17
75497;BME280;64074;47.540;19.072;2023-11-21T06:03:08;100111.09;;;7.71;81.77
75497;BME280;64074;47.540;19.072;2023-11-21T06:06:31;100122.31;;;7.84;81.46
75497;BME280;64074;47.540;19.072;2023-11-21T06:09:47;100143.06;;;7.88;81.01
75497;BME280;64074;47.540;19.072;2023-11-21T06:13:15;100153.13;;;7.78;81.32
75497;BME280;64074;47.540;19.072;2023-11-21T06:16:36;100163.59;;;7.84;81.21
75497;BME280;64074;47.540;19.072;2023-11-21T06:19:48;100166.03;;;7.86;80.75
75497;BME280;64074;47.540;19.072;2023-11-21T06:23:04;100166.63;;;7.78;81.77
75497;BME280;64074;47.540;19.072;2023-11-21T06:26:12;100162.06;;;7.73;82.11
75497;BME280;64074;47.540;19.072;2023-11-21T06:29:16;100174.16;;;7.81;82.24
75497;BME280;64074;47.540;19.072;2023-11-21T06:32:27;100186.84;;;7.80;81.93
75497;BME280;64074;47.540;19.072;2023-11-21T06:35:34;100193.53;;;7.88;81.72
75497;BME280;64074;47.540;19.072;2023-11-21T06:39:00;100213.88;;;7.75;81.33
75497;BME280;64074;47.540;19.072;2023-11-21T06:42:18;100198.41;;;7.86;82.26
75497;BME280;64074;47.540;19.072;2023-11-21T06:45:25;100197.25;;;8.31;81.63
75497;BME280;64074;47.540;19.072;2023-11-21T06:48:32;100210.47;;;9.14;77.58
75497;BME280;64074;47.540;19.072;2023-11-21T06:51:57;100208.00;;;8.70;77.65
75497;BME280;64074;47.540;19.072;2023-11-21T06:55:45;100197.59;;;8.24;79.26
75497;BME280;64074;47.540;19.072;2023-11-21T06:59:09;100197.38;;;8.16;80.09
75497;BME280;64074;47.540;19.072;2023-11-21T07:02:32;100205.34;;;8.31;80.14
75497;BME280;64074;47.540;19.072;2023-11-21T07:05:48;100214.25;;;8.31;79.58
75497;BME280;64074;47.540;19.072;2023-11-21T07:09:08;100212.38;;;8.32;79.56
75497;BME280;64074;47.540;19.072;2023-11-21T07:13:03;100217.88;;;8.22;79.89
75497;BME280;64074;47.540;19.072;2023-11-21T07:16:30;100225.97;;;8.17;81.24
75497;BME280;64074;47.540;19.072;2023-11-21T07:19:43;100231.09;;;8.23;80.17
75497;BME280;64074;47.540;19.072;2023-11-21T07:22:56;100234.03;;;8.27;80.23
75497;BME280;64074;47.540;19.072;2023-11-21T07:26:09;100230.00;;;8.24;80.56
75497;BME280;64074;47.540;19.072;2023-11-21T07:29:24;100231.13;;;8.18;80.62
75497;BME280;64074;47.540;19.072;2023-11-21T07:32:54;100231.28;;;8.32;80.65
75497;BME280;64074;47.540;19.072;2023-11-21T07:36:20;100225.06;;;8.31;80.39
75497;BME280;64074;47.540;19.072;2023-11-21T07:39:41;100227.97;;;8.45;80.36
75497;BME280;64074;47.540;19.072;2023-11-21T07:42:57;100224.63;;;8.53;79.53
75497;BME280;64074;47.540;19.072;2023-11-21T07:46:13;100235.22;;;8.50;80.00
75497;BME280;64074;47.540;19.072;2023-11-21T07:50:06;100239.13;;;8.68;80.06
75497;BME280;64074;47.540;19.072;2023-11-21T07:54:00;100233.88;;;8.76;79.54
75497;BME280;64074;47.540;19.072;2023-11-21T09:07:01;100213.25;;;9.90;73.60
75497;BME280;64074;47.540;19.072;2023-11-21T09:10:39;100210.41;;;9.81;71.79
75497;BME280;64074;47.540;19.072;2023-11-21T09:14:02;100206.09;;;9.80;70.95
75497;BME280;64074;47.540;19.072;2023-11-21T09:17:57;100203.38;;;9.99;70.51
75497;BME280;64074;47.540;19.072;2023-11-21T09:21:29;100206.88;;;10.18;70.24
75497;BME280;64074;47.540;19.072;2023-11-21T09:25:02;100194.69;;;10.21;70.74
75497;BME280;64074;47.540;19.072;2023-11-21T09:28:27;100196.69;;;10.10;69.84
75497;BME280;64074;47.540;19.072;2023-11-21T09:32:01;100195.81;;;10.14;70.13
75497;BME280;64074;47.540;19.072;2023-11-21T09:35:21;100188.28;;;10.30;70.60
75497;BME280;64074;47.540;19.072;2023-11-21T09:38:57;100184.06;;;10.38;70.44
75497;BME280;64074;47.540;19.072;2023-11-21T09:42:55;100169.94;;;10.41;70.38
75497;BME280;64074;47.540;19.072;2023-11-21T09:46:28;100168.31;;;10.40;71.19
75497;BME280;64074;47.540;19.072;2023-11-21T09:50:01;100167.09;;;10.32;69.59
75497;BME280;64074;47.540;19.072;2023-11-21T11:13:56;100126.88;;;11.58;65.84
75497;BME280;64074;47.540;19.072;2023-11-21T11:18:16;100111.44;;;11.45;66.69
75497;BME280;64074;47.540;19.072;2023-11-21T11:22:23;100122.31;;;11.67;65.08
75497;BME280;64074;47.540;19.072;2023-11-21T11:26:24;100121.28;;;11.77;65.23
75497;BME280;64074;47.540;19.072;2023-11-21T11:34:45;100124.84;;;11.27;67.86
75497;BME280;64074;47.540;19.072;2023-11-21T11:38:07;100118.63;;;11.27;68.04
75497;BME280;64074;47.540;19.072;2023-11-21T11:41:42;100117.94;;;11.21;67.81
75497;BME280;64074;47.540;19.072;2023-11-21T11:45:34;100105.38;;;11.12;68.06
75497;BME280;64074;47.540;19.072;2023-11-21T11:49:05;100108.94;;;11.34;67.01
75497;BME280;64074;47.540;19.072;2023-11-21T11:56:22;100098.78;;;11.62;67.57
75497;BME280;64074;47.540;19.072;2023-11-21T12:00:35;100097.97;;;11.62;68.11
75497;BME280;64074;47.540;19.072;2023-11-21T13:14:12;100083.94;;;11.82;69.02
75497;BME280;64074;47.540;19.072;2023-11-21T13:17:48;100083.88;;;11.74;67.63
75497;BME280;64074;47.540;19.072;2023-11-21T13:21:18;100084.41;;;11.62;66.43
75497;BME280;64074;47.540;19.072;2023-11-21T13:24:24;100088.84;;;11.58;66.19
75497;BME280;64074;47.540;19.072;2023-11-21T13:27:36;100082.50;;;11.62;66.22
75497;BME280;64074;47.540;19.072;2023-11-21T13:30:50;100090.28;;;11.55;66.28
75497;BME280;64074;47.540;19.072;2023-11-21T13:34:14;100085.13;;;11.31;66.17
75497;BME280;64074;47.540;19.072;2023-11-21T13:37:33;100084.94;;;11.28;66.19
75497;BME280;64074;47.540;19.072;2023-11-21T13:40:53;100100.84;;;11.21;66.60
75497;BME280;64074;47.540;19.072;2023-11-21T13:44:43;100097.69;;;10.91;66.91
75497;BME280;64074;47.540;19.072;2023-11-21T13:49:02;100095.22;;;11.17;66.52
75497;BME280;64074;47.540;19.072;2023-11-21T13:52:16;100092.81;;;11.16;66.57
75497;BME280;64074;47.540;19.072;2023-11-21T13:55:25;100103.66;;;11.16;66.91
75497;BME280;64074;47.540;19.072;2023-11-21T13:58:54;100105.22;;;10.94;67.48
75497;BME280;64074;47.540;19.072;2023-11-21T14:03:32;100110.91;;;11.06;66.95
75497;BME280;64074;47.540;19.072;2023-11-21T14:07:04;100110.13;;;10.78;68.34
75497;BME280;64074;47.540;19.072;2023-11-21T14:10:30;100104.00;;;10.87;68.24
75497;BME280;64074;47.540;19.072;2023-11-21T14:14:03;100111.16;;;10.69;69.08
75497;BME280;64074;47.540;19.072;2023-11-21T14:17:09;100119.06;;;10.65;68.78
75497;BME280;64074;47.540;19.072;2023-11-21T14:20:16;100115.06;;;10.76;68.01
75497;BME280;64074;47.540;19.072;2023-11-21T14:23:21;100129.09;;;10.65;68.28
75497;BME280;64074;47.540;19.072;2023-11-21T14:26:28;100119.84;;;10.38;68.61
75497;BME280;64074;47.540;19.072;2023-11-21T14:29:47;100132.38;;;10.34;68.30
75497;BME280;64074;47.540;19.072;2023-11-21T14:33:05;100135.00;;;10.39;68.61
75497;BME280;64074;47.540;19.072;2023-11-21T14:36:42;100136.59;;;10.40;68.46
75497;BME280;64074;47.540;19.072;2023-11-21T14:40:01;100136.84;;;10.44;68.67
75497;BME280;64074;47.540;19.072;2023-11-21T14:43:24;100129.97;;;10.33;68.38
75497;BME280;64074;47.540;19.072;2023-11-21T14:46:50;100130.28;;;10.31;68.96
75497;BME280;64074;47.540;19.072;2023-11-21T14:50:22;100141.81;;;10.37;69.57
75497;BME280;64074;47.540;19.072;2023-11-21T14:53:52;100133.38;;;10.25;69.71
75497;BME280;64074;47.540;19.072;2023-11-21T14:57:45;100134.91;;;10.12;69.42
75497;BME280;64074;47.540;19.072;2023-11-21T15:01:03;100144.28;;;10.20;69.58
75497;BME280;64074;47.540;19.072;2023-11-21T15:04:14;100132.19;;;10.12;70.59
75497;BME280;64074;47.540;19.072;2023-11-21T15:07:45;100138.50;;;10.07;70.60
75497;BME280;64074;47.540;19.072;2023-11-21T15:10:59;100139.69;;;10.01;70.73
75497;BME280;64074;47.540;19.072;2023-11-21T15:14:40;100139.91;;;10.05;70.39
75497;BME280;64074;47.540;19.072;2023-11-21T15:17:47;100131.88;;;10.00;70.81
75497;BME280;64074;47.540;19.072;2023-11-21T15:20:56;100136.78;;;9.98;71.01
75497;BME280;64074;47.540;19.072;2023-11-21T15:24:03;100140.75;;;9.86;71.65
75497;BME280;64074;47.540;19.072;2023-11-21T15:27:09;100145.13;;;9.82;72.24
75497;BME280;64074;47.540;19.072;2023-11-21T15:30:19;100145.81;;;9.74;72.40
75497;BME280;64074;47.540;19.072;2023-11-21T15:33:32;100149.13;;;9.71;73.01
75497;BME280;64074;47.540;19.072;2023-11-21T15:36:43;100144.13;;;9.60;74.16
75497;BME280;64074;47.540;19.072;2023-11-21T15:39:51;100135.00;;;9.55;74.35
75497;BME280;64074;47.540;19.072;2023-11-21T15:42:59;100147.13;;;9.58;73.67
75497;BME280;64074;47.540;19.072;2023-11-21T15:46:04;100147.28;;;9.48;73.79
75497;BME280;64074;47.540;19.072;2023-11-21T15:49:16;100146.63;;;9.56;72.66
75497;BME280;64074;47.540;19.072;2023-11-21T15:52:36;100143.28;;;9.45;73.40
75497;BME280;64074;47.540;19.072;2023-11-21T15:56:04;100136.75;;;9.46;73.58
75497;BME280;64074;47.540;19.072;2023-11-21T15:59:16;100143.41;;;9.35;74.31
75497;BME280;64074;47.540;19.072;2023-11-21T16:02:37;100137.56;;;9.28;73.59
75497;BME280;64074;47.540;19.072;2023-11-21T16:05:52;100137.84;;;9.27;74.34
75497;BME280;64074;47.540;19.072;2023-11-21T16:09:11;100140.03;;;9.24;74.00
75497;BME280;64074;47.540;19.072;2023-11-21T16:12:43;100149.06;;;9.15;74.31
75497;BME280;64074;47.540;19.072;2023-11-21T16:15:51;100144.16;;;9.17;74.02
75497;BME280;64074;47.540;19.072;2023-11-21T16:19:10;100143.63;;;9.20;74.55
75497;BME280;64074;47.540;19.072;2023-11-21T16:22:21;100149.06;;;9.15;74.26
75497;BME280;64074;47.540;19.072;2023-11-21T16:25:31;100150.25;;;9.09;74.72
75497;BME280;64074;47.540;19.072;2023-11-21T16:28:59;100153.22;;;9.07;74.82
75497;BME280;64074;47.540;19.072;2023-11-21T16:32:05;100150.31;;;9.04;75.08
75497;BME280;64074;47.540;19.072;2023-11-21T16:35:23;100144.22;;;8.93;75.12
75497;BME280;64074;47.540;19.072;2023-11-21T16:38:38;100146.94;;;8.93;75.90
75497;BME280;64074;47.540;19.072;2023-11-21T16:41:50;100151.06;;;8.85;75.29
75497;BME280;64074;47.540;19.072;2023-11-21T16:45:18;100151.63;;;8.82;75.68
75497;BME280;64074;47.540;19.072;2023-11-21T16:48:31;100156.25;;;8.82;76.14
75497;BME280;64074;47.540;19.072;2023-11-21T16:51:44;100156.53;;;8.80;75.25
75497;BME280;64074;47.540;19.072;2023-11-21T16:55:15;100158.13;;;8.81;75.17
75497;BME280;64074;47.540;19.072;2023-11-21T16:58:31;100153.88;;;8.75;76.08
75497;BME280;64074;47.540;19.072;2023-11-21T17:01:43;100156.41;;;8.67;75.92
75497;BME280;64074;47.540;19.072;2023-11-21T17:05:09;100152.06;;;8.71;76.22
75497;BME280;64074;47.540;19.072;2023-11-21T17:08:25;100157.25;;;8.62;76.23
75497;BME280;64074;47.540;19.072;2023-11-21T17:11:32;100162.09;;;8.65;75.70
75497;BME280;64074;47.540;19.072;2023-11-21T17:14:41;100165.72;;;8.55;76.26
75497;BME280;64074;47.540;19.072;2023-11-21T17:17:57;100173.31;;;8.53;76.00
75497;BME280;64074;47.540;19.072;2023-11-21T17:21:25;100173.59;;;8.52;77.17
75497;BME280;64074;47.540;19.072;2023-11-21T17:24:43;100181.47;;;8.48;76.86
75497;BME280;64074;47.540;19.072;2023-11-21T17:27:50;100186.38;;;8.41;77.22
75497;BME280;64074;47.540;19.072;2023-11-21T17:31:06;100178.34;;;8.31;77.97
75497;BME280;64074;47.540;19.072;2023-11-21T17:34:38;100187.03;;;8.28;77.98
75497;BME280;64074;47.540;19.072;2023-11-21T17:37:59;100192.72;;;8.26;78.65
75497;BME280;64074;47.540;19.072;2023-11-21T17:41:21;100182.53;;;8.18;78.75
75497;BME280;64074;47.540;19.072;2023-11-21T17:44:39;100191.44;;;8.14;79.09
75497;BME280;64074;47.540;19.072;2023-11-21T17:47:55;100196.03;;;8.13;78.66
75497;BME280;64074;47.540;19.072;2023-11-21T17:51:19;100205.50;;;8.11;79.19
75497;BME280;64074;47.540;19.072;2023-11-21T17:54:29;100199.84;;;8.12;78.74
75497;BME280;64074;47.540;19.072;2023-11-21T17:57:41;100203.84;;;8.15;78.71
75497;BME280;64074;47.540;19.072;2023-11-21T18:00:52;100206.84;;;8.13;79.04
75497;BME280;64074;47.540;19.072;2023-11-21T18:04:12;100212.25;;;8.13;79.40
75497;BME280;64074;47.540;19.072;2023-11-21T18:07:27;100214.94;;;8.18;78.74
75497;BME280;64074;47.540;19.072;2023-11-21T18:10:51;100218.16;;;8.15;78.99
75497;BME280;64074;47.540;19.072;2023-11-21T18:14:15;100224.38;;;8.16;79.05
75497;BME280;64074;47.540;19.072;2023-11-21T18:17:36;100217.34;;;8.20;78.70
75497;BME280;64074;47.540;19.072;2023-11-21T18:20:55;100224.63;;;8.19;78.64
75497;BME280;64074;47.540;19.072;2023-11-21T18:24:12;100220.03;;;8.20;78.51
75497;BME280;64074;47.540;19.072;2023-11-21T18:27:23;100221.66;;;8.21;79.08
75497;BME280;64074;47.540;19.072;2023-11-21T18:30:41;100228.44;;;8.18;79.46
75497;BME280;64074;47.540;19.072;2023-11-21T18:33:49;100231.16;;;8.13;79.11
75497;BME280;64074;47.540;19.072;2023-11-21T18:36:58;100226.13;;;8.01;79.46
75497;BME280;64074;47.540;19.072;2023-11-21T18:40:29;100233.97;;;7.98;79.90
75497;BME280;64074;47.540;19.072;2023-11-21T18:43:54;100230.22;;;7.89;80.49
75497;BME280;64074;47.540;19.072;2023-11-21T18:47:21;100233.50;;;7.86;80.38
75497;BME280;64074;47.540;19.072;2023-11-21T18:50:45;100240.22;;;7.88;80.96
75497;BME280;64074;47.540;19.072;2023-11-21T18:54:00;100234.91;;;7.78;80.82
75497;BME280;64074;47.540;19.072;2023-11-21T18:57:13;100238.44;;;7.74;81.33
75497;BME280;64074;47.540;19.072;2023-11-21T19:00:26;100239.53;;;7.67;81.30
75497;BME280;64074;47.540;19.072;2023-11-21T19:03:35;100234.94;;;7.68;82.12
75497;BME280;64074;47.540;19.072;2023-11-21T19:06:47;100239.50;;;7.78;81.41
75497;BME280;64074;47.540;19.072;2023-11-21T19:10:05;100243.81;;;7.79;81.17
75497;BME280;64074;47.540;19.072;2023-11-21T19:13:20;100239.25;;;7.74;81.21
75497;BME280;64074;47.540;19.072;2023-11-21T19:16:33;100247.09;;;7.65;81.92
75497;BME280;64074;47.540;19.072;2023-11-21T19:19:46;100250.06;;;7.64;81.84
75497;BME280;64074;47.540;19.072;2023-11-21T19:23:18;100245.22;;;7.66;82.14
75497;BME280;64074;47.540;19.072;2023-11-21T19:26:45;100247.13;;;7.60;82.31
75497;BME280;64074;47.540;19.072;2023-11-21T19:30:06;100251.19;;;7.58;82.10
75497;BME280;64074;47.540;19.072;2023-11-21T19:33:22;100251.47;;;7.56;82.57
75497;BME280;64074;47.540;19.072;2023-11-21T19:36:46;100256.06;;;7.56;82.03
75497;BME280;64074;47.540;19.072;2023-11-21T19:40:11;100254.72;;;7.53;82.50
75497;BME280;64074;47.540;19.072;2023-11-21T19:43:37;100262.31;;;7.41;82.93
75497;BME280;64074;47.540;19.072;2023-11-21T19:46:52;100265.56;;;7.38;83.15
75497;BME280;64074;47.540;19.072;2023-11-21T19:50:20;100257.22;;;7.34;83.04
75497;BME280;64074;47.540;19.072;2023-11-21T19:53:31;100259.13;;;7.34;83.30
75497;BME280;64074;47.540;19.072;2023-11-21T19:56:47;100267.72;;;7.41;83.19
75497;BME280;64074;47.540;19.072;2023-11-21T20:00:07;100278.78;;;7.39;83.13
75497;BME280;64074;47.540;19.072;2023-11-21T20:03:32;100277.69;;;7.46;83.35
75497;BME280;64074;47.540;19.072;2023-11-21T20:07:05;100280.94;;;7.37;83.35
75497;BME280;64074;47.540;19.072;2023-11-21T20:10:42;100281.22;;;7.36;83.21
75497;BME280;64074;47.540;19.072;2023-11-21T20:14:04;100283.72;;;7.22;83.99
75497;BME280;64074;47.540;19.072;2023-11-21T20:17:29;100284.75;;;7.31;83.67
75497;BME280;64074;47.540;19.072;2023-11-21T20:20:58;100289.59;;;7.29;83.67
75497;BME280;64074;47.540;19.072;2023-11-21T20:24:13;100294.47;;;7.27;84.09
75497;BME280;64074;47.540;19.072;2023-11-21T20:27:28;100297.16;;;7.27;83.42
75497;BME280;64074;47.540;19.072;2023-11-21T20:30:53;100279.91;;;7.28;83.50
75497;BME280;64074;47.540;19.072;2023-11-21T20:34:18;100296.09;;;7.18;84.06
75497;BME280;64074;47.540;19.072;2023-11-21T20:37:36;100286.13;;;7.14;84.16
75497;BME280;64074;47.540;19.072;2023-11-21T20:40:58;100285.34;;;7.13;84.16
75497;BME280;64074;47.540;19.072;2023-11-21T20:44:31;100290.75;;;7.03;85.21
75497;BME280;64074;47.540;19.072;2023-11-21T20:47:48;100286.72;;;7.05;84.97
75497;BME280;64074;47.540;19.072;2023-11-21T20:51:02;100286.97;;;7.04;84.74
75497;BME280;64074;47.540;19.072;2023-11-21T20:54:13;100293.47;;;6.98;84.90
75497;BME280;64074;47.540;19.072;2023-11-21T20:57:20;100293.44;;;6.93;85.10
75497;BME280;64074;47.540;19.072;2023-11-21T21:00:35;100297.25;;;6.87;85.79
75497;BME280;64074;47.540;19.072;2023-11-21T21:03:45;100300.47;;;6.89;85.93
75497;BME280;64074;47.540;19.072;2023-11-21T21:06:56;100305.88;;;6.78;85.84
75497;BME280;64074;47.540;19.072;2023-11-21T21:10:21;100307.22;;;6.81;85.88
75497;BME280;64074;47.540;19.072;2023-11-21T21:13:47;100313.16;;;6.83;85.57
75497;BME280;64074;47.540;19.072;2023-11-21T21:17:04;100311.53;;;6.77;85.76